sensor_id;sensor_type;location;lat;lon;timestamp;pressure;altitude;pressure_sealevel;temperature;humidity
50859;BME280;36826;47.514;19.056;2023-05-09T00:01:33;100962.00;;;8.17;55.82
50859;BME280;36826;47.514;19.056;2023-05-09T00:04:00;100967.34;;;8.17;56.15
50859;BME280;36826;47.514;19.056;2023-05-09T00:06:26;100959.53;;;8.14;56.21
50859;BME280;36826;47.514;19.056;2023-05-09T00:08:53;100956.09;;;8.12;56.44
50859;BME280;36826;47.514;19.056;2023-05-09T00:11:18;100958.66;;;8.13;56.47
50859;BME280;36826;47.514;19.056;2023-05-09T00:13:44;100954.41;;;8.11;55.98
50859;BME280;36826;47.514;19.056;2023-05-09T00:16:10;100958.97;;;8.09;56.23
50859;BME280;36826;47.514;19.056;2023-05-09T00:18:36;100948.31;;;8.09;56.10
50859;BME280;36826;47.514;19.056;2023-05-09T00:21:02;100955.53;;;8.07;56.40
50859;BME280;36826;47.514;19.056;2023-05-09T00:23:29;100950.75;;;7.99;56.31
50859;BME280;36826;47.514;19.056;2023-05-09T00:25:55;100943.56;;;7.99;56.78
50859;BME280;36826;47.514;19.056;2023-05-09T00:28:20;100948.16;;;7.97;56.63
50859;BME280;36826;47.514;19.056;2023-05-09T00:30:45;100939.50;;;7.94;56.65
50859;BME280;36826;47.514;19.056;2023-05-09T00:33:11;100936.38;;;7.87;56.77
50859;BME280;36826;47.514;19.056;2023-05-09T00:35:36;100935.22;;;7.91;57.03
50859;BME280;36826;47.514;19.056;2023-05-09T00:38:02;100937.13;;;7.89;57.20
50859;BME280;36826;47.514;19.056;2023-05-09T00:40:27;100939.03;;;7.87;57.17
50859;BME280;36826;47.514;19.056;2023-05-09T00:42:53;100926.66;;;7.86;57.36
50859;BME280;36826;47.514;19.056;2023-05-09T00:45:22;100935.81;;;7.82;57.16
50859;BME280;36826;47.514;19.056;2023-05-09T00:47:48;100938.88;;;7.76;57.72
50859;BME280;36826;47.514;19.056;2023-05-09T00:50:13;100940.69;;;7.75;57.38
50859;BME280;36826;47.514;19.056;2023-05-09T00:52:39;100943.28;;;7.77;57.74
50859;BME280;36826;47.514;19.056;2023-05-09T00:55:06;100939.00;;;7.74;58.00
50859;BME280;36826;47.514;19.056;2023-05-09T00:57:32;100930.72;;;7.64;58.13
50859;BME280;36826;47.514;19.056;2023-05-09T00:59:59;100924.44;;;7.65;58.20
50859;BME280;36826;47.514;19.056;2023-05-09T01:02:25;100930.72;;;7.64;58.09
50859;BME280;36826;47.514;19.056;2023-05-09T01:04:52;100937.19;;;7.60;57.94
50859;BME280;36826;47.514;19.056;2023-05-09T01:09:54;100942.06;;;7.53;58.52
50859;BME280;36826;47.514;19.056;2023-05-09T01:12:37;100948.28;;;7.54;58.51
50859;BME280;36826;47.514;19.056;2023-05-09T01:23:16;100942.84;;;7.41;59.36
50859;BME280;36826;47.514;19.056;2023-05-09T01:28:18;100932.28;;;7.40;59.56
50859;BME280;36826;47.514;19.056;2023-05-09T01:30:52;100934.66;;;7.44;59.74
50859;BME280;36826;47.514;19.056;2023-05-09T01:33:20;100935.50;;;7.30;59.75
50859;BME280;36826;47.514;19.056;2023-05-09T01:35:50;100931.06;;;7.31;60.30
50859;BME280;36826;47.514;19.056;2023-05-09T01:38:21;100934.38;;;7.34;60.39
50859;BME280;36826;47.514;19.056;2023-05-09T01:40:50;100934.84;;;7.27;61.04
50859;BME280;36826;47.514;19.056;2023-05-09T01:43:18;100926.97;;;7.25;60.90
50859;BME280;36826;47.514;19.056;2023-05-09T01:45:46;100931.44;;;7.25;60.98
50859;BME280;36826;47.514;19.056;2023-05-09T01:48:13;100927.34;;;7.19;61.49
50859;BME280;36826;47.514;19.056;2023-05-09T01:50:40;100924.13;;;7.14;61.97
50859;BME280;36826;47.514;19.056;2023-05-09T01:53:09;100916.50;;;7.22;61.78
50859;BME280;36826;47.514;19.056;2023-05-09T01:55:35;100920.69;;;7.12;62.45
50859;BME280;36826;47.514;19.056;2023-05-09T01:58:03;100916.13;;;7.14;62.25
50859;BME280;36826;47.514;19.056;2023-05-09T02:00:31;100917.84;;;7.15;62.79
50859;BME280;36826;47.514;19.056;2023-05-09T02:02:58;100921.34;;;7.15;62.64
50859;BME280;36826;47.514;19.056;2023-05-09T02:05:26;100920.69;;;7.12;62.65
50859;BME280;36826;47.514;19.056;2023-05-09T02:07:54;100921.75;;;7.09;63.00
50859;BME280;36826;47.514;19.056;2023-05-09T02:10:21;100914.03;;;7.04;63.11
50859;BME280;36826;47.514;19.056;2023-05-09T02:12:50;100917.66;;;7.03;63.25
50859;BME280;36826;47.514;19.056;2023-05-09T02:15:16;100913.28;;;7.02;63.55
50859;BME280;36826;47.514;19.056;2023-05-09T02:17:41;100922.28;;;7.00;63.65
50859;BME280;36826;47.514;19.056;2023-05-09T02:20:07;100904.13;;;6.92;63.87
50859;BME280;36826;47.514;19.056;2023-05-09T02:22:34;100911.75;;;6.98;63.88
50859;BME280;36826;47.514;19.056;2023-05-09T02:25:02;100913.81;;;6.93;63.59
50859;BME280;36826;47.514;19.056;2023-05-09T02:27:30;100911.16;;;6.93;63.74
50859;BME280;36826;47.514;19.056;2023-05-09T02:29:58;100907.19;;;6.86;64.04
50859;BME280;36826;47.514;19.056;2023-05-09T02:32:29;100900.97;;;6.85;63.81
50859;BME280;36826;47.514;19.056;2023-05-09T02:34:57;100911.06;;;6.80;63.97
50859;BME280;36826;47.514;19.056;2023-05-09T02:37:23;100907.47;;;6.81;63.69
50859;BME280;36826;47.514;19.056;2023-05-09T02:39:50;100903.38;;;6.75;64.53
50859;BME280;36826;47.514;19.056;2023-05-09T02:42:20;100908.41;;;6.80;64.07
50859;BME280;36826;47.514;19.056;2023-05-09T02:44:46;100902.00;;;6.68;64.63
50859;BME280;36826;47.514;19.056;2023-05-09T02:47:11;100902.13;;;6.67;65.02
50859;BME280;36826;47.514;19.056;2023-05-09T02:49:37;100907.44;;;6.67;64.90
50859;BME280;36826;47.514;19.056;2023-05-09T02:52:03;100901.34;;;6.65;65.13
50859;BME280;36826;47.514;19.056;2023-05-09T02:54:28;100904.13;;;6.63;64.44
50859;BME280;36826;47.514;19.056;2023-05-09T02:56:54;100907.53;;;6.65;64.52
50859;BME280;36826;47.514;19.056;2023-05-09T02:59:19;100911.41;;;6.59;64.61
50859;BME280;36826;47.514;19.056;2023-05-09T03:01:45;100906.00;;;6.61;64.54
50859;BME280;36826;47.514;19.056;2023-05-09T03:04:11;100902.59;;;6.59;64.76
50859;BME280;36826;47.514;19.056;2023-05-09T03:06:36;100904.47;;;6.57;65.11
50859;BME280;36826;47.514;19.056;2023-05-09T03:09:02;100904.66;;;6.54;64.95
50859;BME280;36826;47.514;19.056;2023-05-09T03:11:28;100902.75;;;6.56;64.89
50859;BME280;36826;47.514;19.056;2023-05-09T03:13:55;100905.34;;;6.57;65.24
50859;BME280;36826;47.514;19.056;2023-05-09T03:16:20;100903.91;;;6.66;65.15
50859;BME280;36826;47.514;19.056;2023-05-09T03:18:45;100893.09;;;6.69;65.08
50859;BME280;36826;47.514;19.056;2023-05-09T03:21:11;100894.97;;;6.67;65.11
50859;BME280;36826;47.514;19.056;2023-05-09T03:23:38;100890.06;;;6.75;65.15
50859;BME280;36826;47.514;19.056;2023-05-09T03:26:03;100889.28;;;6.73;64.97
50859;BME280;36826;47.514;19.056;2023-05-09T03:28:29;100895.00;;;6.82;64.85
50859;BME280;36826;47.514;19.056;2023-05-09T03:30:55;100900.81;;;7.03;64.18
50859;BME280;36826;47.514;19.056;2023-05-09T03:33:20;100900.63;;;7.20;63.50
50859;BME280;36826;47.514;19.056;2023-05-09T03:35:46;100900.19;;;7.83;61.69
50859;BME280;36826;47.514;19.056;2023-05-09T03:38:11;100908.34;;;8.35;59.77
50859;BME280;36826;47.514;19.056;2023-05-09T03:40:37;100912.47;;;8.66;58.19
50859;BME280;36826;47.514;19.056;2023-05-09T03:43:02;100912.75;;;9.39;56.08
50859;BME280;36826;47.514;19.056;2023-05-09T03:45:28;100905.88;;;9.61;55.22
50859;BME280;36826;47.514;19.056;2023-05-09T03:47:53;100906.88;;;10.20;54.14
50859;BME280;36826;47.514;19.056;2023-05-09T03:50:19;100905.09;;;10.67;52.69
50859;BME280;36826;47.514;19.056;2023-05-09T03:52:44;100901.25;;;11.05;51.91
50859;BME280;36826;47.514;19.056;2023-05-09T03:55:10;100903.06;;;11.28;50.95
50859;BME280;36826;47.514;19.056;2023-05-09T03:57:36;100914.06;;;12.03;48.66
50859;BME280;36826;47.514;19.056;2023-05-09T04:00:02;100919.78;;;12.94;47.29
50859;BME280;36826;47.514;19.056;2023-05-09T04:02:32;100907.72;;;13.50;45.60
50859;BME280;36826;47.514;19.056;2023-05-09T04:04:59;100903.44;;;14.08;44.18
50859;BME280;36826;47.514;19.056;2023-05-09T04:07:25;100907.53;;;14.71;42.58
50859;BME280;36826;47.514;19.056;2023-05-09T04:09:53;100908.63;;;15.54;42.23
50859;BME280;36826;47.514;19.056;2023-05-09T04:12:20;100904.25;;;15.53;41.03
50859;BME280;36826;47.514;19.056;2023-05-09T04:14:46;100906.53;;;15.48;40.18
50859;BME280;36826;47.514;19.056;2023-05-09T04:17:11;100902.16;;;15.65;39.83
50859;BME280;36826;47.514;19.056;2023-05-09T04:19:37;100910.25;;;15.37;40.32
50859;BME280;36826;47.514;19.056;2023-05-09T04:22:02;100904.31;;;16.25;39.31
50859;BME280;36826;47.514;19.056;2023-05-09T04:24:28;100905.34;;;16.69;37.82
50859;BME280;36826;47.514;19.056;2023-05-09T04:26:53;100913.97;;;16.28;38.55
50859;BME280;36826;47.514;19.056;2023-05-09T04:29:18;100904.63;;;15.86;39.68
50859;BME280;36826;47.514;19.056;2023-05-09T04:31:44;100908.25;;;16.31;38.80
50859;BME280;36826;47.514;19.056;2023-05-09T04:34:12;100900.16;;;17.02;37.27
50859;BME280;36826;47.514;19.056;2023-05-09T04:36:38;100903.69;;;17.37;36.93
50859;BME280;36826;47.514;19.056;2023-05-09T04:39:03;100910.34;;;18.27;35.83
50859;BME280;36826;47.514;19.056;2023-05-09T04:41:35;100916.19;;;17.30;35.72
50859;BME280;36826;47.514;19.056;2023-05-09T04:44:01;100912.81;;;17.87;35.35
50859;BME280;36826;47.514;19.056;2023-05-09T04:46:27;100923.81;;;17.35;36.17
50859;BME280;36826;47.514;19.056;2023-05-09T04:48:53;100913.09;;;17.16;37.21
50859;BME280;36826;47.514;19.056;2023-05-09T04:51:18;100910.44;;;17.76;35.15
50859;BME280;36826;47.514;19.056;2023-05-09T04:53:44;100906.50;;;17.19;35.78
50859;BME280;36826;47.514;19.056;2023-05-09T04:56:09;100898.84;;;18.17;35.33
50859;BME280;36826;47.514;19.056;2023-05-09T04:58:35;100918.75;;;17.74;35.70
50859;BME280;36826;47.514;19.056;2023-05-09T05:01:04;100910.69;;;18.57;35.05
50859;BME280;36826;47.514;19.056;2023-05-09T05:03:30;100905.28;;;21.01;31.03
50859;BME280;36826;47.514;19.056;2023-05-09T05:05:56;100911.25;;;19.97;32.35
50859;BME280;36826;47.514;19.056;2023-05-09T05:08:21;100912.06;;;19.74;32.01
50859;BME280;36826;47.514;19.056;2023-05-09T05:10:47;100915.47;;;20.31;31.67
50859;BME280;36826;47.514;19.056;2023-05-09T05:13:19;100912.97;;;20.97;30.41
50859;BME280;36826;47.514;19.056;2023-05-09T05:15:46;100915.38;;;20.39;30.68
50859;BME280;36826;47.514;19.056;2023-05-09T05:18:11;100912.16;;;20.97;30.96
50859;BME280;36826;47.514;19.056;2023-05-09T05:20:39;100908.25;;;20.15;31.44
50859;BME280;36826;47.514;19.056;2023-05-09T05:23:04;100912.59;;;21.97;28.91
50859;BME280;36826;47.514;19.056;2023-05-09T05:25:30;100910.97;;;21.51;29.51
50859;BME280;36826;47.514;19.056;2023-05-09T05:27:55;100910.19;;;21.21;30.08
50859;BME280;36826;47.514;19.056;2023-05-09T05:30:21;100913.81;;;21.28;29.29
50859;BME280;36826;47.514;19.056;2023-05-09T05:32:47;100920.59;;;21.62;29.75
50859;BME280;36826;47.514;19.056;2023-05-09T05:35:12;100908.28;;;21.06;29.77
50859;BME280;36826;47.514;19.056;2023-05-09T05:37:41;100914.28;;;22.42;28.44
50859;BME280;36826;47.514;19.056;2023-05-09T05:40:08;100907.47;;;21.57;29.23
50859;BME280;36826;47.514;19.056;2023-05-09T05:42:39;100914.66;;;19.99;30.95
50859;BME280;36826;47.514;19.056;2023-05-09T05:45:05;100904.53;;;22.32;28.14
50859;BME280;36826;47.514;19.056;2023-05-09T05:47:34;100902.56;;;21.31;29.88
50859;BME280;36826;47.514;19.056;2023-05-09T05:50:01;100903.63;;;22.25;28.61
50859;BME280;36826;47.514;19.056;2023-05-09T05:52:27;100905.88;;;23.22;27.25
50859;BME280;36826;47.514;19.056;2023-05-09T05:54:53;100898.63;;;24.85;25.24
50859;BME280;36826;47.514;19.056;2023-05-09T05:57:19;100903.88;;;24.80;25.09
50859;BME280;36826;47.514;19.056;2023-05-09T05:59:49;100912.97;;;25.98;24.00
50859;BME280;36826;47.514;19.056;2023-05-09T06:02:16;100905.31;;;26.14;23.50
50859;BME280;36826;47.514;19.056;2023-05-09T06:04:42;100906.41;;;24.28;25.47
50859;BME280;36826;47.514;19.056;2023-05-09T06:07:10;100914.41;;;24.36;25.17
50859;BME280;36826;47.514;19.056;2023-05-09T06:09:37;100912.53;;;23.54;25.98
50859;BME280;36826;47.514;19.056;2023-05-09T06:12:03;100911.47;;;24.31;25.44
50859;BME280;36826;47.514;19.056;2023-05-09T06:14:28;100916.50;;;25.73;24.04
50859;BME280;36826;47.514;19.056;2023-05-09T06:16:54;100911.75;;;22.40;26.99
50859;BME280;36826;47.514;19.056;2023-05-09T06:19:20;100918.03;;;23.61;26.09
50859;BME280;36826;47.514;19.056;2023-05-09T06:21:46;100907.63;;;23.08;26.81
50859;BME280;36826;47.514;19.056;2023-05-09T06:24:12;100910.03;;;23.66;26.24
50859;BME280;36826;47.514;19.056;2023-05-09T06:26:37;100910.91;;;23.67;26.00
50859;BME280;36826;47.514;19.056;2023-05-09T06:29:04;100899.22;;;25.66;24.25
50859;BME280;36826;47.514;19.056;2023-05-09T06:31:32;100898.25;;;25.47;24.06
50859;BME280;36826;47.514;19.056;2023-05-09T06:34:01;100893.78;;;24.33;25.06
50859;BME280;36826;47.514;19.056;2023-05-09T06:36:27;100893.69;;;23.86;26.17
50859;BME280;36826;47.514;19.056;2023-05-09T06:38:52;100897.97;;;24.96;24.23
50859;BME280;36826;47.514;19.056;2023-05-09T06:41:18;100897.94;;;26.40;23.54
50859;BME280;36826;47.514;19.056;2023-05-09T06:43:43;100897.53;;;26.04;22.93
50859;BME280;36826;47.514;19.056;2023-05-09T06:46:09;100898.38;;;23.44;26.17
50859;BME280;36826;47.514;19.056;2023-05-09T06:48:35;100902.47;;;23.68;25.81
50859;BME280;36826;47.514;19.056;2023-05-09T06:51:01;100892.84;;;21.73;27.84
50859;BME280;36826;47.514;19.056;2023-05-09T06:53:26;100898.91;;;22.41;27.14
50859;BME280;36826;47.514;19.056;2023-05-09T06:55:52;100889.09;;;23.38;26.71
50859;BME280;36826;47.514;19.056;2023-05-09T06:58:17;100896.03;;;21.99;28.14
50859;BME280;36826;47.514;19.056;2023-05-09T07:00:43;100883.59;;;20.16;29.87
50859;BME280;36826;47.514;19.056;2023-05-09T07:03:10;100885.09;;;19.96;30.40
50859;BME280;36826;47.514;19.056;2023-05-09T07:05:41;100882.19;;;21.79;28.65
50859;BME280;36826;47.514;19.056;2023-05-09T07:08:07;100876.28;;;23.39;26.43
50859;BME280;36826;47.514;19.056;2023-05-09T07:10:32;100870.22;;;22.01;27.42
50859;BME280;36826;47.514;19.056;2023-05-09T07:12:58;100876.09;;;20.95;29.31
50859;BME280;36826;47.514;19.056;2023-05-09T07:15:24;100871.81;;;22.89;27.00
50859;BME280;36826;47.514;19.056;2023-05-09T07:17:50;100871.47;;;23.06;26.42
50859;BME280;36826;47.514;19.056;2023-05-09T07:20:16;100874.94;;;21.04;29.47
50859;BME280;36826;47.514;19.056;2023-05-09T07:22:42;100864.88;;;21.35;29.44
50859;BME280;36826;47.514;19.056;2023-05-09T07:25:08;100873.41;;;22.48;27.35
50859;BME280;36826;47.514;19.056;2023-05-09T07:27:35;100871.00;;;22.38;27.50
50859;BME280;36826;47.514;19.056;2023-05-09T07:30:05;100866.16;;;23.33;26.61
50859;BME280;36826;47.514;19.056;2023-05-09T07:32:32;100854.53;;;21.60;29.04
50859;BME280;36826;47.514;19.056;2023-05-09T07:34:59;100850.53;;;22.78;27.39
50859;BME280;36826;47.514;19.056;2023-05-09T07:37:26;100849.94;;;24.67;25.17
50859;BME280;36826;47.514;19.056;2023-05-09T07:39:51;100852.88;;;24.86;24.31
50859;BME280;36826;47.514;19.056;2023-05-09T07:42:17;100846.75;;;24.97;24.90
50859;BME280;36826;47.514;19.056;2023-05-09T07:44:43;100835.84;;;25.42;23.76
50859;BME280;36826;47.514;19.056;2023-05-09T07:47:10;100835.63;;;24.85;24.93
50859;BME280;36826;47.514;19.056;2023-05-09T07:49:38;100834.72;;;23.64;26.19
50859;BME280;36826;47.514;19.056;2023-05-09T07:52:07;100834.28;;;23.47;26.51
50859;BME280;36826;47.514;19.056;2023-05-09T07:54:33;100827.19;;;24.53;25.69
50859;BME280;36826;47.514;19.056;2023-05-09T07:56:59;100831.22;;;26.58;23.32
50859;BME280;36826;47.514;19.056;2023-05-09T07:59:25;100831.13;;;27.39;22.87
50859;BME280;36826;47.514;19.056;2023-05-09T08:01:52;100814.53;;;27.15;22.50
50859;BME280;36826;47.514;19.056;2023-05-09T08:04:19;100806.13;;;24.80;24.74
50859;BME280;36826;47.514;19.056;2023-05-09T08:06:45;100809.97;;;24.12;26.17
50859;BME280;36826;47.514;19.056;2023-05-09T08:09:10;100829.44;;;22.36;27.86
50859;BME280;36826;47.514;19.056;2023-05-09T08:11:39;100818.25;;;23.37;26.94
50859;BME280;36826;47.514;19.056;2023-05-09T08:14:05;100809.09;;;23.85;26.22
50859;BME280;36826;47.514;19.056;2023-05-09T08:16:32;100815.50;;;26.21;23.72
50859;BME280;36826;47.514;19.056;2023-05-09T08:18:57;100811.03;;;26.89;22.46
50859;BME280;36826;47.514;19.056;2023-05-09T08:21:24;100809.09;;;25.31;24.04
50859;BME280;36826;47.514;19.056;2023-05-09T08:23:51;100815.53;;;25.82;23.09
50859;BME280;36826;47.514;19.056;2023-05-09T08:26:17;100798.75;;;25.33;23.81
50859;BME280;36826;47.514;19.056;2023-05-09T08:28:43;100808.63;;;23.54;26.40
50859;BME280;36826;47.514;19.056;2023-05-09T08:31:11;100822.72;;;24.92;24.73
50859;BME280;36826;47.514;19.056;2023-05-09T08:33:37;100799.63;;;26.67;22.71
50859;BME280;36826;47.514;19.056;2023-05-09T08:36:03;100803.13;;;25.48;23.81
50859;BME280;36826;47.514;19.056;2023-05-09T08:38:30;100798.16;;;26.46;23.48
50859;BME280;36826;47.514;19.056;2023-05-09T08:40:59;100801.66;;;27.28;22.01
50859;BME280;36826;47.514;19.056;2023-05-09T08:43:33;100794.47;;;27.87;21.50
50859;BME280;36826;47.514;19.056;2023-05-09T08:46:06;100793.88;;;25.74;23.49
50859;BME280;36826;47.514;19.056;2023-05-09T08:48:34;100799.91;;;24.13;25.26
50859;BME280;36826;47.514;19.056;2023-05-09T08:51:04;100800.59;;;25.78;23.64
50859;BME280;36826;47.514;19.056;2023-05-09T08:53:32;100794.19;;;25.59;23.85
50859;BME280;36826;47.514;19.056;2023-05-09T08:55:59;100803.19;;;25.66;23.93
50859;BME280;36826;47.514;19.056;2023-05-09T08:58:26;100797.19;;;26.08;23.22
50859;BME280;36826;47.514;19.056;2023-05-09T09:00:59;100779.34;;;27.36;22.05
50859;BME280;36826;47.514;19.056;2023-05-09T09:03:27;100786.41;;;25.56;24.09
50859;BME280;36826;47.514;19.056;2023-05-09T09:05:54;100792.22;;;25.98;22.69
50859;BME280;36826;47.514;19.056;2023-05-09T09:08:21;100783.69;;;25.10;23.56
50859;BME280;36826;47.514;19.056;2023-05-09T09:10:49;100767.44;;;26.93;22.36
50859;BME280;36826;47.514;19.056;2023-05-09T09:13:16;100762.31;;;27.27;21.68
50859;BME280;36826;47.514;19.056;2023-05-09T09:15:52;100750.31;;;25.13;23.25
50859;BME280;36826;47.514;19.056;2023-05-09T09:18:22;100773.09;;;25.21;23.73
50859;BME280;36826;47.514;19.056;2023-05-09T09:21:09;100767.78;;;24.80;23.45
50859;BME280;36826;47.514;19.056;2023-05-09T09:23:38;100769.06;;;23.37;25.22
50859;BME280;36826;47.514;19.056;2023-05-09T09:26:05;100770.84;;;25.04;23.35
50859;BME280;36826;47.514;19.056;2023-05-09T09:28:31;100788.09;;;25.05;23.49
50859;BME280;36826;47.514;19.056;2023-05-09T09:30:57;100770.44;;;25.39;23.13
50859;BME280;36826;47.514;19.056;2023-05-09T09:33:25;100773.69;;;25.62;23.26
50859;BME280;36826;47.514;19.056;2023-05-09T09:35:52;100787.81;;;25.26;22.95
50859;BME280;36826;47.514;19.056;2023-05-09T09:38:23;100771.44;;;24.27;24.46
50859;BME280;36826;47.514;19.056;2023-05-09T09:41:07;100781.31;;;23.61;25.21
50859;BME280;36826;47.514;19.056;2023-05-09T09:43:36;100769.44;;;25.27;23.99
50859;BME280;36826;47.514;19.056;2023-05-09T09:46:03;100757.31;;;26.06;23.55
50859;BME280;36826;47.514;19.056;2023-05-09T09:48:31;100762.59;;;25.82;23.09
50859;BME280;36826;47.514;19.056;2023-05-09T09:51:17;100755.09;;;22.34;26.78
50859;BME280;36826;47.514;19.056;2023-05-09T09:56:09;100771.84;;;20.56;29.22
50859;BME280;36826;47.514;19.056;2023-05-09T09:58:38;100757.50;;;22.86;26.73
50859;BME280;36826;47.514;19.056;2023-05-09T10:01:04;100755.91;;;24.01;25.68
50859;BME280;36826;47.514;19.056;2023-05-09T10:03:38;100745.50;;;24.50;24.79
50859;BME280;36826;47.514;19.056;2023-05-09T10:06:04;100720.22;;;22.30;26.95
50859;BME280;36826;47.514;19.056;2023-05-09T10:08:29;100742.81;;;23.76;25.87
50859;BME280;36826;47.514;19.056;2023-05-09T10:10:58;100744.22;;;24.52;24.97
50859;BME280;36826;47.514;19.056;2023-05-09T10:13:24;100759.16;;;24.63;24.39
50859;BME280;36826;47.514;19.056;2023-05-09T10:15:51;100758.72;;;23.25;25.84
50859;BME280;36826;47.514;19.056;2023-05-09T10:18:17;100749.59;;;20.67;29.30
50859;BME280;36826;47.514;19.056;2023-05-09T10:20:46;100740.31;;;21.28;28.92
50859;BME280;36826;47.514;19.056;2023-05-09T10:23:12;100737.97;;;21.62;28.79
50859;BME280;36826;47.514;19.056;2023-05-09T10:25:53;100747.16;;;20.28;29.99
50859;BME280;36826;47.514;19.056;2023-05-09T10:28:27;100734.31;;;20.81;29.61
50859;BME280;36826;47.514;19.056;2023-05-09T10:31:00;100736.38;;;20.64;29.53
50859;BME280;36826;47.514;19.056;2023-05-09T10:33:48;100752.34;;;20.52;29.39
50859;BME280;36826;47.514;19.056;2023-05-09T10:36:18;100739.03;;;19.89;30.65
50859;BME280;36826;47.514;19.056;2023-05-09T10:38:49;100733.47;;;18.08;33.62
50859;BME280;36826;47.514;19.056;2023-05-09T10:41:15;100735.09;;;18.43;33.17
50859;BME280;36826;47.514;19.056;2023-05-09T10:43:44;100728.88;;;19.13;32.53
50859;BME280;36826;47.514;19.056;2023-05-09T10:46:11;100729.78;;;19.29;31.95
50859;BME280;36826;47.514;19.056;2023-05-09T10:48:38;100732.69;;;19.51;31.45
50859;BME280;36826;47.514;19.056;2023-05-09T10:51:04;100730.41;;;19.62;31.51
50859;BME280;36826;47.514;19.056;2023-05-09T10:53:48;100737.72;;;19.39;31.29
50859;BME280;36826;47.514;19.056;2023-05-09T10:58:56;100739.47;;;18.92;32.19
50859;BME280;36826;47.514;19.056;2023-05-09T11:01:32;100733.31;;;18.66;32.61
50859;BME280;36826;47.514;19.056;2023-05-09T11:04:00;100726.31;;;18.32;33.45
50859;BME280;36826;47.514;19.056;2023-05-09T11:06:49;100719.53;;;18.28;33.38
50859;BME280;36826;47.514;19.056;2023-05-09T11:09:41;100723.25;;;18.35;33.63
50859;BME280;36826;47.514;19.056;2023-05-09T11:22:19;100712.38;;;18.44;33.86
50859;BME280;36826;47.514;19.056;2023-05-09T11:24:46;100694.88;;;18.46;33.66
50859;BME280;36826;47.514;19.056;2023-05-09T11:29:51;100707.97;;;18.43;33.89
50859;BME280;36826;47.514;19.056;2023-05-09T11:32:19;100700.53;;;18.28;33.48
50859;BME280;36826;47.514;19.056;2023-05-09T11:34:45;100694.75;;;18.48;33.34
50859;BME280;36826;47.514;19.056;2023-05-09T11:37:13;100697.84;;;18.36;33.27
50859;BME280;36826;47.514;19.056;2023-05-09T11:39:58;100690.00;;;18.42;32.70
50859;BME280;36826;47.514;19.056;2023-05-09T11:42:27;100699.97;;;18.49;32.69
50859;BME280;36826;47.514;19.056;2023-05-09T11:44:55;100697.00;;;18.67;32.72
50859;BME280;36826;47.514;19.056;2023-05-09T11:47:21;100691.69;;;18.82;32.86
50859;BME280;36826;47.514;19.056;2023-05-09T11:49:48;100682.19;;;18.47;33.12
50859;BME280;36826;47.514;19.056;2023-05-09T11:52:15;100681.25;;;18.23;33.47
50859;BME280;36826;47.514;19.056;2023-05-09T11:54:41;100681.69;;;18.83;32.75
50859;BME280;36826;47.514;19.056;2023-05-09T11:57:07;100679.84;;;18.75;32.75
50859;BME280;36826;47.514;19.056;2023-05-09T11:59:34;100703.72;;;18.48;33.49
50859;BME280;36826;47.514;19.056;2023-05-09T12:02:04;100677.81;;;18.77;33.27
50859;BME280;36826;47.514;19.056;2023-05-09T12:04:30;100674.16;;;18.93;32.97
50859;BME280;36826;47.514;19.056;2023-05-09T12:07:00;100658.75;;;18.94;31.39
50859;BME280;36826;47.514;19.056;2023-05-09T12:09:34;100661.53;;;18.77;32.78
50859;BME280;36826;47.514;19.056;2023-05-09T12:12:10;100659.34;;;18.73;32.95
50859;BME280;36826;47.514;19.056;2023-05-09T12:14:37;100677.88;;;19.00;32.21
50859;BME280;36826;47.514;19.056;2023-05-09T12:17:05;100661.59;;;18.61;31.84
50859;BME280;36826;47.514;19.056;2023-05-09T12:19:30;100647.69;;;18.64;31.29
50859;BME280;36826;47.514;19.056;2023-05-09T12:22:06;100645.84;;;18.96;31.14
50859;BME280;36826;47.514;19.056;2023-05-09T12:24:34;100649.28;;;19.13;31.71
50859;BME280;36826;47.514;19.056;2023-05-09T12:27:01;100636.75;;;19.35;31.87
50859;BME280;36826;47.514;19.056;2023-05-09T12:29:28;100637.28;;;19.07;32.36
50859;BME280;36826;47.514;19.056;2023-05-09T12:31:55;100639.16;;;18.44;33.39
50859;BME280;36826;47.514;19.056;2023-05-09T12:34:23;100640.56;;;18.71;32.94
50859;BME280;36826;47.514;19.056;2023-05-09T12:36:49;100633.84;;;18.59;33.02
50859;BME280;36826;47.514;19.056;2023-05-09T12:39:16;100632.66;;;19.16;32.00
50859;BME280;36826;47.514;19.056;2023-05-09T12:41:48;100640.72;;;19.24;31.85
50859;BME280;36826;47.514;19.056;2023-05-09T12:44:32;100653.75;;;19.06;32.48
50859;BME280;36826;47.514;19.056;2023-05-09T12:47:00;100633.44;;;18.93;33.04
50859;BME280;36826;47.514;19.056;2023-05-09T12:49:28;100635.53;;;18.51;33.92
50859;BME280;36826;47.514;19.056;2023-05-09T12:51:55;100630.59;;;18.55;34.13
50859;BME280;36826;47.514;19.056;2023-05-09T12:54:27;100615.34;;;18.54;34.47
50859;BME280;36826;47.514;19.056;2023-05-09T12:56:55;100614.81;;;18.90;33.85
50859;BME280;36826;47.514;19.056;2023-05-09T12:59:28;100607.84;;;18.33;34.81
50859;BME280;36826;47.514;19.056;2023-05-09T13:01:58;100611.66;;;18.15;35.23
50859;BME280;36826;47.514;19.056;2023-05-09T13:04:25;100609.84;;;18.39;35.25
50859;BME280;36826;47.514;19.056;2023-05-09T13:06:56;100600.47;;;18.50;35.22
50859;BME280;36826;47.514;19.056;2023-05-09T13:09:25;100605.19;;;18.56;35.07
50859;BME280;36826;47.514;19.056;2023-05-09T13:11:51;100608.28;;;18.45;35.23
50859;BME280;36826;47.514;19.056;2023-05-09T13:14:21;100596.53;;;18.21;35.37
50859;BME280;36826;47.514;19.056;2023-05-09T13:16:47;100589.50;;;18.43;35.09